Time;durP1;ratioP1;P1;durP2;ratioP2;P2;SDS_P1;SDS_P2;PMS_P1;PMS_P2;Temp;Humidity;BMP_temperature;BMP_pressure;BME280_temperature;BME280_humidity;BME280_pressure;Samples;Min_cycle;Max_cycle;Signal;HPM_P1;HPM_P2
2021/10/14 00:02:22;;;;;;;26.83;18.30;;;11.10;99.90;;;;;;5094180;28;20465;-69
2021/10/14 00:04:49;;;;;;;23.53;18.40;;;11.20;99.90;;;;;;5096948;28;20862;-68
2021/10/14 00:07:16;;;;;;;20.63;18.50;;;11.20;99.90;;;;;;5100349;28;20469;-69
2021/10/14 00:09:43;;;;;;;19.87;17.83;;;11.20;99.90;;;;;;5102580;28;20461;-68
2021/10/14 00:12:09;;;;;;;21.83;19.50;;;11.20;99.90;;;;;;5100039;28;20462;-71
2021/10/14 00:14:38;;;;;;;20.70;18.67;;;11.20;99.90;;;;;;5099279;28;20478;-69
2021/10/14 00:17:04;;;;;;;22.80;18.37;;;11.20;99.90;;;;;;5092351;28;20477;-70
2021/10/14 00:19:32;;;;;;;19.80;17.77;;;11.10;99.90;;;;;;5099511;28;20988;-71
2021/10/14 00:21:59;;;;;;;20.13;17.90;;;11.10;99.90;;;;;;5102367;28;20477;-72
2021/10/14 00:24:26;;;;;;;20.20;18.50;;;11.10;99.90;;;;;;5099281;28;20468;-71
2021/10/14 00:26:53;;;;;;;19.80;17.73;;;11.10;99.90;;;;;;5098623;28;20484;-68
2021/10/14 00:29:20;;;;;;;18.83;17.23;;;11.20;99.90;;;;;;5093319;28;20458;-68
2021/10/14 00:31:48;;;;;;;19.90;18.20;;;11.20;99.90;;;;;;5098483;28;20555;-68
2021/10/14 00:34:15;;;;;;;20.57;18.73;;;11.20;99.90;;;;;;5101525;28;20759;-71
2021/10/14 00:36:42;;;;;;;20.60;18.80;;;11.20;99.90;;;;;;5103200;28;20460;-69
2021/10/14 00:39:09;;;;;;;21.97;18.83;;;11.10;99.90;;;;;;5095927;28;20461;-68
2021/10/14 00:41:36;;;;;;;20.30;18.50;;;11.10;99.90;;;;;;5097523;28;20457;-69
2021/10/14 00:44:03;;;;;;;19.23;17.83;;;11.10;99.90;;;;;;5095568;28;21048;-68
2021/10/14 00:46:31;;;;;;;25.33;20.60;;;11.20;99.90;;;;;;5094247;28;20450;-69
2021/10/14 00:48:59;;;;;;;20.00;18.40;;;11.20;99.90;;;;;;5095929;28;20473;-69
2021/10/14 00:51:27;;;;;;;19.90;18.40;;;11.20;99.90;;;;;;5099146;28;20488;-68
2021/10/14 00:53:54;;;;;;;20.60;18.50;;;11.20;99.90;;;;;;5097620;28;20979;-68
2021/10/14 00:56:21;;;;;;;19.87;17.40;;;11.20;99.90;;;;;;5098085;28;20461;-69
2021/10/14 00:58:48;;;;;;;20.03;18.10;;;11.10;99.90;;;;;;5093726;28;20616;-68
2021/10/14 01:01:15;;;;;;;19.70;17.93;;;11.20;99.90;;;;;;5093433;28;20921;-69
2021/10/14 01:03:42;;;;;;;20.07;18.27;;;11.00;99.90;;;;;;5098990;28;20468;-69
2021/10/14 01:06:11;;;;;;;20.33;18.53;;;11.20;99.90;;;;;;5095074;28;20956;-71
2021/10/14 01:08:37;;;;;;;21.10;19.00;;;11.20;99.90;;;;;;5098703;28;20457;-69
2021/10/14 01:11:04;;;;;;;20.27;18.57;;;11.20;99.90;;;;;;5090806;28;20807;-68
2021/10/14 01:13:31;;;;;;;20.50;18.37;;;11.20;99.90;;;;;;5087647;28;20503;-70
2021/10/14 01:15:58;;;;;;;19.53;17.87;;;11.30;99.90;;;;;;5091095;28;20449;-71
2021/10/14 01:18:25;;;;;;;19.50;18.00;;;11.30;99.90;;;;;;5096359;28;21142;-69
2021/10/14 01:20:53;;;;;;;19.23;17.50;;;11.30;99.90;;;;;;5096053;28;20553;-69
2021/10/14 01:23:20;;;;;;;20.70;18.83;;;11.20;99.90;;;;;;5083542;28;20477;-69
2021/10/14 01:25:48;;;;;;;20.57;18.80;;;11.20;99.90;;;;;;5096277;28;20460;-69
2021/10/14 01:28:15;;;;;;;20.37;18.20;;;11.20;99.90;;;;;;5094345;28;20464;-68
2021/10/14 01:30:43;;;;;;;20.13;18.37;;;11.10;99.90;;;;;;5090491;28;20462;-72
2021/10/14 01:33:10;;;;;;;20.33;18.70;;;11.10;99.90;;;;;;5095212;28;20464;-69
2021/10/14 01:35:38;;;;;;;20.73;18.70;;;11.20;99.90;;;;;;5100635;28;20465;-71
2021/10/14 01:38:06;;;;;;;22.00;19.77;;;11.20;99.90;;;;;;5096273;28;20477;-68
2021/10/14 01:40:33;;;;;;;21.67;19.77;;;11.10;99.90;;;;;;5100300;28;21212;-70
2021/10/14 01:43:00;;;;;;;28.17;20.20;;;11.10;99.90;;;;;;5102473;28;21177;-69
2021/10/14 01:45:26;;;;;;;20.97;19.03;;;11.10;99.90;;;;;;5091702;28;20531;-69
2021/10/14 01:47:53;;;;;;;21.23;19.20;;;11.20;99.90;;;;;;5097383;28;20469;-71
2021/10/14 01:50:20;;;;;;;21.77;19.57;;;11.10;99.90;;;;;;5093804;28;20480;-70
2021/10/14 01:52:47;;;;;;;21.50;19.47;;;11.10;99.90;;;;;;5099539;28;20475;-69
2021/10/14 01:55:15;;;;;;;20.73;18.80;;;11.20;99.90;;;;;;5099771;28;20663;-69
2021/10/14 01:57:42;;;;;;;22.23;19.20;;;11.20;99.90;;;;;;5090108;28;20497;-69
2021/10/14 02:00:10;;;;;;;19.60;18.03;;;11.20;99.90;;;;;;5084838;28;20489;-69
2021/10/14 02:02:37;;;;;;;20.50;18.70;;;11.30;99.90;;;;;;5084497;28;20777;-69
2021/10/14 02:05:05;;;;;;;21.33;18.00;;;11.30;99.90;;;;;;5094001;28;20475;-70
2021/10/14 02:07:32;;;;;;;20.10;18.60;;;11.30;99.90;;;;;;5093736;28;20457;-69
2021/10/14 02:09:59;;;;;;;20.60;18.57;;;11.30;99.90;;;;;;5096717;28;20808;-69
2021/10/14 02:12:27;;;;;;;20.37;18.57;;;11.20;99.90;;;;;;5095799;28;20468;-69
2021/10/14 02:14:53;;;;;;;19.50;17.83;;;11.30;99.90;;;;;;5094348;28;20496;-69
2021/10/14 02:17:20;;;;;;;20.37;18.43;;;11.20;99.90;;;;;;5096343;28;20454;-69
2021/10/14 02:19:48;;;;;;;26.43;19.73;;;11.10;99.90;;;;;;5099934;28;20533;-69
2021/10/14 02:22:15;;;;;;;19.47;17.87;;;11.10;99.90;;;;;;5094074;28;20461;-72
2021/10/14 02:24:41;;;;;;;19.13;17.63;;;11.00;99.90;;;;;;5097253;28;20493;-69
2021/10/14 02:27:08;;;;;;;19.63;18.10;;;11.00;99.90;;;;;;5097346;28;21039;-69
2021/10/14 02:29:37;;;;;;;18.73;17.20;;;10.80;99.90;;;;;;5094478;28;20473;-71
2021/10/14 02:32:04;;;;;;;20.17;18.37;;;10.70;99.90;;;;;;5089336;28;20458;-69
2021/10/14 02:34:31;;;;;;;19.80;18.10;;;10.70;99.90;;;;;;5090979;28;20501;-71
2021/10/14 02:36:59;;;;;;;19.73;17.87;;;10.60;99.90;;;;;;5096814;28;20486;-72
2021/10/14 02:39:25;;;;;;;20.50;18.40;;;10.70;99.90;;;;;;5093651;28;20497;-71
2021/10/14 02:41:52;;;;;;;21.10;19.17;;;10.60;99.90;;;;;;5098065;28;20450;-72
2021/10/14 02:44:19;;;;;;;21.50;19.40;;;10.60;99.90;;;;;;5099215;28;20462;-69
2021/10/14 02:46:48;;;;;;;21.57;18.20;;;10.60;99.90;;;;;;5083183;28;20493;-68
2021/10/14 02:49:15;;;;;;;19.93;18.03;;;10.50;99.90;;;;;;5084292;28;20454;-72
2021/10/14 02:51:42;;;;;;;20.93;18.90;;;10.50;99.90;;;;;;5091014;28;20612;-69
2021/10/14 02:54:09;;;;;;;24.27;19.30;;;10.40;99.90;;;;;;5092691;28;21203;-71
2021/10/14 02:56:36;;;;;;;23.47;19.33;;;10.50;99.90;;;;;;5098288;28;20461;-69
2021/10/14 02:59:03;;;;;;;20.00;18.10;;;10.50;99.90;;;;;;5084516;28;20489;-69
2021/10/14 03:01:31;;;;;;;19.70;17.83;;;10.50;99.90;;;;;;5082418;28;20454;-71
2021/10/14 03:03:59;;;;;;;20.57;18.57;;;10.50;99.90;;;;;;5093966;28;20464;-68
2021/10/14 03:06:26;;;;;;;20.53;18.63;;;10.60;99.90;;;;;;5091780;28;20959;-71
2021/10/14 03:08:52;;;;;;;19.43;17.73;;;10.60;99.90;;;;;;5094494;28;20462;-70
2021/10/14 03:11:19;;;;;;;20.73;18.73;;;10.60;99.90;;;;;;5092165;28;20449;-70
2021/10/14 03:13:46;;;;;;;19.50;17.60;;;10.60;99.90;;;;;;5096369;28;20464;-69
2021/10/14 03:16:14;;;;;;;18.27;16.77;;;10.50;99.90;;;;;;5093639;28;20466;-70
2021/10/14 03:18:42;;;;;;;21.30;19.20;;;10.60;99.90;;;;;;5094413;28;20466;-69
2021/10/14 03:21:11;;;;;;;20.77;18.77;;;10.60;99.90;;;;;;5092980;28;20465;-69
2021/10/14 03:23:38;;;;;;;21.43;19.20;;;10.60;99.90;;;;;;5093617;28;20832;-68
2021/10/14 03:26:05;;;;;;;20.73;18.70;;;10.60;99.90;;;;;;5092279;28;20461;-72
2021/10/14 03:28:32;;;;;;;25.90;19.80;;;10.60;99.90;;;;;;5090084;28;20457;-69
2021/10/14 03:31:00;;;;;;;20.47;18.80;;;10.70;99.90;;;;;;5088375;28;20454;-69
2021/10/14 03:33:26;;;;;;;18.70;17.20;;;10.60;99.90;;;;;;5098392;28;20468;-69
2021/10/14 03:35:54;;;;;;;18.80;17.10;;;10.70;99.90;;;;;;5095869;28;20488;-69
2021/10/14 03:38:22;;;;;;;20.63;18.53;;;10.60;99.90;;;;;;5096491;28;20461;-69
2021/10/14 03:40:49;;;;;;;18.80;17.20;;;10.60;99.90;;;;;;5098454;28;20465;-69
2021/10/14 03:43:16;;;;;;;20.17;18.30;;;10.70;99.90;;;;;;5094973;28;20829;-70
2021/10/14 03:45:43;;;;;;;19.93;18.33;;;10.70;99.90;;;;;;5103327;28;20543;-69
2021/10/14 03:48:10;;;;;;;20.13;18.10;;;10.70;99.90;;;;;;5103901;28;20493;-69
2021/10/14 03:50:38;;;;;;;20.70;18.73;;;10.60;99.90;;;;;;5104274;28;20484;-72
2021/10/14 03:53:04;;;;;;;20.30;18.27;;;10.70;99.90;;;;;;5094228;28;20559;-69
2021/10/14 03:55:33;;;;;;;20.20;18.60;;;10.70;99.90;;;;;;5099420;28;20481;-70
2021/10/14 03:58:00;;;;;;;20.33;18.33;;;10.70;99.90;;;;;;5097771;28;20486;-70
2021/10/14 04:00:26;;;;;;;28.63;19.20;;;10.70;99.90;;;;;;5096255;28;20831;-69
2021/10/14 04:02:54;;;;;;;29.50;18.50;;;10.70;99.90;;;;;;5099957;28;20462;-70
2021/10/14 04:05:21;;;;;;;20.80;18.70;;;10.70;99.90;;;;;;5089306;28;20473;-70
2021/10/14 04:07:48;;;;;;;20.40;18.87;;;10.80;99.90;;;;;;5090016;28;20465;-70
2021/10/14 04:10:15;;;;;;;24.67;19.90;;;10.70;99.90;;;;;;5093352;28;20459;-69
2021/10/14 04:12:44;;;;;;;20.30;18.37;;;10.80;99.90;;;;;;5096567;28;20450;-70
2021/10/14 04:15:12;;;;;;;20.40;18.53;;;10.70;99.90;;;;;;5096437;28;20484;-71
2021/10/14 04:17:39;;;;;;;22.07;19.93;;;10.70;99.90;;;;;;5093088;28;20544;-71
2021/10/14 04:20:09;;;;;;;22.23;19.37;;;10.70;99.90;;;;;;5100823;28;21015;-69
2021/10/14 04:22:36;;;;;;;21.83;20.00;;;10.80;99.90;;;;;;5094774;28;20975;-69
2021/10/14 04:25:04;;;;;;;22.23;20.40;;;10.70;99.90;;;;;;5093655;28;20480;-69
2021/10/14 04:27:32;;;;;;;22.47;20.40;;;10.70;99.90;;;;;;5084022;28;20892;-70
2021/10/14 04:30:00;;;;;;;21.70;19.70;;;10.80;99.90;;;;;;5093382;28;20696;-70
2021/10/14 04:32:27;;;;;;;22.50;20.57;;;10.70;99.90;;;;;;5086312;28;20855;-69
2021/10/14 04:34:54;;;;;;;27.40;21.27;;;10.70;99.90;;;;;;5092356;28;20488;-69
2021/10/14 04:37:21;;;;;;;22.50;20.20;;;10.60;99.90;;;;;;5092203;28;20452;-69
2021/10/14 04:39:50;;;;;;;28.57;21.57;;;10.60;99.90;;;;;;5090954;28;20465;-70
2021/10/14 04:42:18;;;;;;;23.93;20.80;;;10.60;99.90;;;;;;5093583;28;20869;-69
2021/10/14 04:44:45;;;;;;;21.83;19.40;;;10.60;99.90;;;;;;5092425;28;20462;-69
2021/10/14 04:47:18;;;;;;;25.50;22.93;;;10.60;99.90;;;;;;5092587;28;20464;-69
2021/10/14 04:49:45;;;;;;;25.93;22.90;;;10.60;99.90;;;;;;5084454;28;20466;-71
2021/10/14 04:52:12;;;;;;;31.20;21.67;;;10.60;99.90;;;;;;5085892;28;20504;-72
2021/10/14 04:54:39;;;;;;;24.33;20.30;;;10.60;99.90;;;;;;5078890;28;20482;-68
2021/10/14 04:57:06;;;;;;;29.70;21.87;;;10.60;99.90;;;;;;5088189;28;20557;-68
2021/10/14 04:59:33;;;;;;;20.83;19.03;;;10.60;99.90;;;;;;5092659;28;20574;-71
2021/10/14 05:02:00;;;;;;;21.70;19.40;;;10.60;99.90;;;;;;5082474;28;20535;-70
2021/10/14 05:04:28;;;;;;;23.30;21.30;;;10.50;99.90;;;;;;5091822;28;20451;-68
2021/10/14 05:06:55;;;;;;;24.10;21.67;;;10.50;99.90;;;;;;5093480;28;20513;-69
2021/10/14 05:09:22;;;;;;;29.20;22.70;;;10.40;99.90;;;;;;5095507;28;20462;-68
2021/10/14 05:11:49;;;;;;;29.13;23.60;;;10.60;99.90;;;;;;5088550;28;20466;-69
2021/10/14 05:14:16;;;;;;;24.57;22.27;;;10.60;99.90;;;;;;5091939;28;20469;-72
2021/10/14 05:16:43;;;;;;;28.53;21.63;;;10.60;99.90;;;;;;5088550;28;20980;-68
2021/10/14 05:19:09;;;;;;;26.17;22.73;;;10.50;99.90;;;;;;5090467;28;20470;-69
2021/10/14 05:21:38;;;;;;;31.03;23.23;;;10.50;99.90;;;;;;5092163;28;20476;-69
2021/10/14 05:24:05;;;;;;;25.03;20.50;;;10.50;99.90;;;;;;5091743;28;20465;-68
2021/10/14 05:26:33;;;;;;;32.03;23.00;;;10.50;99.90;;;;;;5084624;28;20473;-69
2021/10/14 05:29:03;;;;;;;29.17;24.07;;;10.50;99.90;;;;;;5087971;28;20479;-68
2021/10/14 05:31:29;;;;;;;27.93;24.30;;;10.40;99.90;;;;;;5080878;28;20470;-70
2021/10/14 05:33:57;;;;;;;26.47;23.50;;;10.40;99.90;;;;;;5091536;28;20469;-71
2021/10/14 05:36:24;;;;;;;27.67;24.87;;;10.40;99.90;;;;;;5086768;28;21221;-69
2021/10/14 05:38:53;;;;;;;33.03;27.63;;;10.20;99.90;;;;;;5090980;28;20465;-68
2021/10/14 05:41:21;;;;;;;39.67;29.90;;;10.30;99.90;;;;;;5091591;28;20493;-68
2021/10/14 05:43:48;;;;;;;35.00;29.47;;;10.30;99.90;;;;;;5097224;28;20524;-70
2021/10/14 05:46:15;;;;;;;33.43;28.60;;;10.20;99.90;;;;;;5093771;28;20494;-68
2021/10/14 05:48:42;;;;;;;40.57;29.10;;;10.20;99.90;;;;;;5089235;28;20461;-68
2021/10/14 05:51:09;;;;;;;32.93;29.40;;;10.20;99.90;;;;;;5097222;28;20862;-70
2021/10/14 05:53:35;;;;;;;34.60;29.73;;;10.20;99.90;;;;;;5093981;28;20471;-68
2021/10/14 05:56:04;;;;;;;39.77;30.80;;;10.20;99.90;;;;;;5091713;28;20487;-67
2021/10/14 05:58:31;;;;;;;35.07;30.47;;;10.20;99.90;;;;;;5083475;28;20487;-68
2021/10/14 06:00:58;;;;;;;40.67;32.10;;;10.20;99.90;;;;;;5093042;28;20482;-69
2021/10/14 06:03:24;;;;;;;38.47;28.83;;;10.10;99.90;;;;;;5095045;28;20465;-69
2021/10/14 06:05:53;;;;;;;49.30;30.93;;;10.20;99.90;;;;;;5099553;28;20464;-68
2021/10/14 06:08:21;;;;;;;37.30;29.30;;;10.20;99.90;;;;;;5090362;28;20464;-69
2021/10/14 06:10:48;;;;;;;39.00;29.40;;;10.20;99.90;;;;;;5089190;28;20475;-69
2021/10/14 06:13:17;;;;;;;40.47;29.67;;;10.20;99.90;;;;;;5084444;28;20745;-69
2021/10/14 06:15:45;;;;;;;33.30;27.40;;;10.10;99.90;;;;;;5088704;28;20526;-69
2021/10/14 06:18:12;;;;;;;37.23;28.50;;;10.10;99.90;;;;;;5086862;28;20454;-69
2021/10/14 06:20:39;;;;;;;32.23;28.50;;;10.20;99.90;;;;;;5088486;28;20844;-70
2021/10/14 06:23:06;;;;;;;39.87;28.00;;;10.20;99.90;;;;;;5084218;28;20482;-68
2021/10/14 06:25:33;;;;;;;33.73;27.47;;;10.10;99.90;;;;;;5089097;28;21369;-68
2021/10/14 06:28:00;;;;;;;32.80;26.77;;;10.20;99.90;;;;;;5081522;28;20472;-71
2021/10/14 06:30:29;;;;;;;32.07;27.27;;;10.20;99.90;;;;;;5077843;28;20454;-72
2021/10/14 06:32:56;;;;;;;29.60;24.47;;;10.20;99.90;;;;;;5090201;28;20471;-72
2021/10/14 06:35:23;;;;;;;32.70;25.37;;;10.20;99.90;;;;;;5094177;28;20487;-73
2021/10/14 06:37:50;;;;;;;34.60;27.70;;;10.20;99.90;;;;;;5097021;28;20532;-71
2021/10/14 06:40:17;;;;;;;36.60;26.87;;;10.20;99.90;;;;;;5096145;28;20826;-72
2021/10/14 06:42:44;;;;;;;33.33;25.50;;;10.20;99.90;;;;;;5088861;28;20462;-71
2021/10/14 06:45:11;;;;;;;28.17;24.90;;;10.30;99.90;;;;;;5094748;28;20458;-73
2021/10/14 06:47:39;;;;;;;32.80;25.77;;;10.20;99.90;;;;;;5096903;28;20485;-70
2021/10/14 06:50:07;;;;;;;39.00;23.97;;;10.30;99.90;;;;;;5097889;28;20470;-71
2021/10/14 06:52:34;;;;;;;32.37;25.50;;;10.30;99.90;;;;;;5086853;28;20471;-71
2021/10/14 06:55:01;;;;;;;30.63;25.30;;;10.30;99.90;;;;;;5092563;28;20478;-71
2021/10/14 06:57:28;;;;;;;31.13;25.87;;;10.40;99.90;;;;;;5091167;28;20465;-71
2021/10/14 06:59:54;;;;;;;35.00;24.83;;;10.40;99.90;;;;;;5092462;28;20577;-70
2021/10/14 07:02:21;;;;;;;33.50;24.83;;;10.50;99.90;;;;;;5088830;28;21026;-71
2021/10/14 07:04:49;;;;;;;34.40;24.47;;;10.50;99.90;;;;;;5090600;28;20828;-71
2021/10/14 07:07:16;;;;;;;26.00;22.70;;;10.60;99.90;;;;;;5091823;28;20465;-71
2021/10/14 07:09:43;;;;;;;31.93;24.77;;;10.50;99.90;;;;;;5089281;28;20528;-74
2021/10/14 07:12:11;;;;;;;30.97;23.30;;;10.60;99.90;;;;;;5092270;28;20472;-71
2021/10/14 07:14:38;;;;;;;37.00;25.80;;;10.60;99.90;;;;;;5095681;28;20565;-71
2021/10/14 07:17:05;;;;;;;32.33;24.97;;;10.60;99.90;;;;;;5096363;28;20519;-72
2021/10/14 07:19:35;;;;;;;43.53;25.70;;;10.50;99.90;;;;;;5095964;28;20464;-72
2021/10/14 07:22:03;;;;;;;31.07;26.03;;;10.50;99.90;;;;;;5093850;28;20567;-71
2021/10/14 07:24:31;;;;;;;31.03;25.13;;;10.40;99.90;;;;;;5090238;28;20472;-72
2021/10/14 07:26:58;;;;;;;33.67;26.27;;;10.60;99.90;;;;;;5091769;28;20500;-71
2021/10/14 07:29:26;;;;;;;30.23;24.90;;;10.60;99.90;;;;;;5094784;28;20472;-72
2021/10/14 07:31:52;;;;;;;32.20;24.00;;;10.60;99.90;;;;;;5093124;28;20453;-71
2021/10/14 07:34:19;;;;;;;33.13;25.63;;;10.70;99.90;;;;;;5091684;28;20961;-71
2021/10/14 07:36:46;;;;;;;34.80;26.20;;;10.60;99.90;;;;;;5090575;28;20492;-71
2021/10/14 07:39:15;;;;;;;36.67;26.20;;;10.70;99.90;;;;;;5092800;28;20461;-71
2021/10/14 07:41:42;;;;;;;33.10;25.20;;;10.60;99.90;;;;;;5091797;28;20467;-72
2021/10/14 07:44:08;;;;;;;30.97;25.13;;;10.80;99.90;;;;;;5085833;28;20984;-72
2021/10/14 07:46:37;;;;;;;30.93;25.90;;;10.80;99.90;;;;;;5087409;28;20462;-71
2021/10/14 07:49:04;;;;;;;29.27;25.87;;;10.90;99.90;;;;;;5086396;28;20464;-71
2021/10/14 07:51:31;;;;;;;35.63;26.10;;;10.80;99.90;;;;;;5089696;28;20491;-73
2021/10/14 07:53:58;;;;;;;32.77;25.67;;;10.90;99.90;;;;;;5091140;28;20770;-71
2021/10/14 07:56:26;;;;;;;31.00;26.10;;;11.00;99.90;;;;;;5089730;28;20485;-72
2021/10/14 07:58:53;;;;;;;29.83;26.40;;;11.00;99.90;;;;;;5087001;28;20485;-73
2021/10/14 08:01:21;;;;;;;31.73;26.90;;;11.10;99.90;;;;;;5088239;28;20466;-73
2021/10/14 08:03:48;;;;;;;36.37;26.63;;;11.10;99.90;;;;;;5095288;28;20494;-73
2021/10/14 08:06:15;;;;;;;31.37;26.07;;;11.10;99.90;;;;;;5090721;28;20922;-71
2021/10/14 08:08:42;;;;;;;33.80;25.63;;;11.30;99.90;;;;;;5090835;28;20470;-74
2021/10/14 08:11:09;;;;;;;31.60;26.00;;;11.20;99.90;;;;;;5091997;28;20569;-72
2021/10/14 08:13:37;;;;;;;32.33;26.07;;;11.10;99.90;;;;;;5094943;28;20460;-73
2021/10/14 08:16:05;;;;;;;35.93;28.23;;;11.30;99.90;;;;;;5085547;28;20564;-71
2021/10/14 08:18:33;;;;;;;31.07;26.20;;;11.40;99.90;;;;;;5095573;28;22370;-72
2021/10/14 08:21:00;;;;;;;35.00;26.30;;;11.30;99.90;;;;;;5100188;28;20457;-72
2021/10/14 08:23:28;;;;;;;36.80;27.87;;;11.40;99.90;;;;;;5096617;28;20465;-68
2021/10/14 08:25:56;;;;;;;32.00;26.43;;;11.40;99.90;;;;;;5096548;28;20856;-70
2021/10/14 08:28:24;;;;;;;33.93;26.90;;;11.40;99.90;;;;;;5096587;28;20467;-69
2021/10/14 08:30:53;;;;;;;31.53;25.10;;;11.20;99.90;;;;;;5085074;28;20464;-69
2021/10/14 08:33:19;;;;;;;36.80;25.30;;;11.30;99.90;;;;;;5090086;28;20519;-69
2021/10/14 08:35:46;;;;;;;32.63;27.37;;;11.10;99.90;;;;;;5095305;28;20556;-69
2021/10/14 08:38:14;;;;;;;36.93;27.07;;;11.30;99.90;;;;;;5094060;28;20461;-69
2021/10/14 08:40:41;;;;;;;42.47;26.30;;;11.30;99.90;;;;;;5093124;28;20468;-69
2021/10/14 08:43:12;;;;;;;31.87;28.50;;;11.30;99.90;;;;;;5098720;28;20475;-69
2021/10/14 08:45:41;;;;;;;36.33;26.80;;;11.40;99.90;;;;;;5099907;28;20471;-72
2021/10/14 08:48:09;;;;;;;31.50;25.33;;;11.50;99.90;;;;;;5103572;28;20456;-70
2021/10/14 08:50:39;;;;;;;36.93;27.97;;;11.30;99.90;;;;;;5095114;28;20584;-71
2021/10/14 08:53:06;;;;;;;32.20;26.40;;;11.50;99.90;;;;;;5096210;28;20586;-70
2021/10/14 08:55:35;;;;;;;38.97;26.93;;;11.50;99.90;;;;;;5091708;28;20463;-68
2021/10/14 08:58:06;;;;;;;35.90;27.50;;;11.40;99.90;;;;;;5093286;28;20987;-69
2021/10/14 09:00:33;;;;;;;30.07;26.90;;;11.50;99.90;;;;;;5088011;28;20466;-70
2021/10/14 09:03:00;;;;;;;30.23;26.00;;;11.70;99.90;;;;;;5094285;28;21134;-71
2021/10/14 09:05:42;;;;;;;32.73;26.73;;;11.70;99.90;;;;;;5094471;28;20466;-71
2021/10/14 09:08:12;;;;;;;30.43;27.33;;;11.80;99.90;;;;;;5098369;28;20457;-69
2021/10/14 09:10:39;;;;;;;33.50;25.90;;;12.00;99.90;;;;;;5093164;28;20468;-70
2021/10/14 09:13:16;;;;;;;33.67;27.47;;;12.00;99.90;;;;;;5089709;28;20465;-70
2021/10/14 09:15:43;;;;;;;35.13;27.33;;;12.20;99.90;;;;;;5090587;28;20477;-70
2021/10/14 09:18:10;;;;;;;28.10;25.30;;;12.40;99.90;;;;;;5087631;28;20465;-69
2021/10/14 09:20:39;;;;;;;29.37;26.10;;;12.40;99.90;;;;;;5073003;28;20458;-70
2021/10/14 09:23:10;;;;;;;28.53;25.43;;;12.60;99.90;;;;;;5092399;28;20464;-70
2021/10/14 09:25:38;;;;;;;29.30;25.83;;;12.60;99.90;;;;;;5092720;28;20498;-72
2021/10/14 09:28:08;;;;;;;28.27;25.10;;;12.60;99.90;;;;;;5090832;28;20987;-70
2021/10/14 09:30:44;;;;;;;28.90;25.37;;;12.70;99.90;;;;;;5096925;28;20462;-70
2021/10/14 09:33:30;;;;;;;29.93;26.10;;;12.70;99.90;;;;;;5094487;28;20519;-70
2021/10/14 09:36:11;;;;;;;27.47;24.80;;;12.70;99.90;;;;;;5088622;28;21089;-70
2021/10/14 09:38:39;;;;;;;27.87;25.00;;;12.70;99.90;;;;;;5090948;28;20466;-72
2021/10/14 09:41:11;;;;;;;34.67;26.87;;;12.80;99.90;;;;;;5091852;28;20465;-70
2021/10/14 09:43:39;;;;;;;30.47;26.57;;;12.80;99.90;;;;;;5070197;28;20458;-70
2021/10/14 09:46:06;;;;;;;27.77;25.07;;;12.80;99.90;;;;;;5080021;28;20454;-70
2021/10/14 09:48:36;;;;;;;28.63;25.37;;;12.90;99.90;;;;;;5085426;28;20889;-73
2021/10/14 09:51:04;;;;;;;27.67;25.07;;;12.90;99.90;;;;;;5073844;28;20478;-73
2021/10/14 09:53:32;;;;;;;28.20;25.20;;;12.90;99.90;;;;;;5082993;28;20466;-71
2021/10/14 09:55:59;;;;;;;27.93;25.13;;;12.90;99.90;;;;;;5093051;28;20484;-70
2021/10/14 09:58:26;;;;;;;27.33;24.70;;;13.00;99.90;;;;;;5086806;28;21000;-69
2021/10/14 10:00:54;;;;;;;31.27;24.40;;;13.10;99.90;;;;;;5085506;28;20505;-69
2021/10/14 10:03:22;;;;;;;28.73;25.63;;;13.20;99.90;;;;;;5081417;28;20555;-69
2021/10/14 10:05:50;;;;;;;25.47;23.10;;;13.20;99.90;;;;;;5083905;28;20473;-70
2021/10/14 10:08:28;;;;;;;26.03;23.57;;;13.10;99.90;;;;;;5088617;28;20466;-70
2021/10/14 10:10:57;;;;;;;26.63;24.30;;;13.20;99.90;;;;;;5090577;28;20462;-71
2021/10/14 10:13:27;;;;;;;26.63;23.93;;;13.20;99.90;;;;;;5093526;28;20465;-70
2021/10/14 10:15:54;;;;;;;27.00;24.30;;;13.20;99.90;;;;;;5083492;28;20454;-71
2021/10/14 10:18:43;;;;;;;27.53;25.00;;;13.10;99.90;;;;;;5094552;28;20453;-70
2021/10/14 10:21:43;;;;;;;26.77;24.27;;;13.20;99.90;;;;;;5090079;28;20880;-72
2021/10/14 10:24:34;;;;;;;25.60;23.33;;;13.30;99.90;;;;;;5079154;28;21178;-70
2021/10/14 10:27:05;;;;;;;26.60;23.30;;;13.00;99.90;;;;;;5080036;28;20551;-73
2021/10/14 10:29:41;;;;;;;25.67;23.03;;;13.10;99.90;;;;;;5066181;28;20565;-70
2021/10/14 10:32:23;;;;;;;25.87;23.23;;;13.20;99.90;;;;;;5080486;28;20473;-72
2021/10/14 10:35:08;;;;;;;25.10;22.90;;;13.10;99.90;;;;;;5081179;28;20796;-70
2021/10/14 10:37:50;;;;;;;25.13;22.23;;;13.20;99.90;;;;;;5082542;28;21048;-70
2021/10/14 10:40:26;;;;;;;25.03;22.80;;;13.40;99.90;;;;;;5087756;28;20570;-73
2021/10/14 10:43:05;;;;;;;25.07;22.93;;;13.40;99.90;;;;;;5085891;28;20495;-73
2021/10/14 10:45:43;;;;;;;25.27;23.27;;;13.20;99.90;;;;;;5080142;28;20458;-70
2021/10/14 10:48:11;;;;;;;27.00;24.60;;;13.30;99.90;;;;;;5083490;28;20840;-71
2021/10/14 10:50:47;;;;;;;24.83;22.47;;;13.50;99.90;;;;;;5088439;28;20476;-70
2021/10/14 10:53:15;;;;;;;27.50;23.93;;;13.50;99.90;;;;;;5086596;28;20469;-70
2021/10/14 10:55:46;;;;;;;25.47;23.33;;;13.50;99.90;;;;;;5084084;28;20489;-71
2021/10/14 10:58:14;;;;;;;24.93;22.83;;;13.70;99.90;;;;;;5086291;28;20524;-70
2021/10/14 11:00:42;;;;;;;24.07;22.00;;;13.90;99.90;;;;;;5084709;28;20557;-71
2021/10/14 11:03:18;;;;;;;24.57;22.27;;;14.00;99.90;;;;;;5088387;28;20769;-70
2021/10/14 11:05:48;;;;;;;24.20;22.00;;;14.10;99.90;;;;;;5085941;28;20460;-69
2021/10/14 11:08:18;;;;;;;24.97;22.83;;;14.00;99.90;;;;;;5091645;28;20778;-70
2021/10/14 11:10:51;;;;;;;24.47;22.30;;;14.00;99.90;;;;;;5081634;28;20457;-70
2021/10/14 11:13:19;;;;;;;25.27;22.90;;;14.00;99.90;;;;;;5083624;28;20515;-70
2021/10/14 11:15:51;;;;;;;24.20;22.03;;;14.10;99.90;;;;;;5081179;28;20497;-73
2021/10/14 11:18:19;;;;;;;25.17;22.53;;;14.30;99.90;;;;;;5088489;28;20489;-70
2021/10/14 11:20:52;;;;;;;24.90;22.57;;;14.40;99.90;;;;;;5091762;28;20463;-70
2021/10/14 11:23:20;;;;;;;26.27;23.67;;;14.60;99.90;;;;;;5091119;28;20484;-68
2021/10/14 11:26:05;;;;;;;25.50;22.93;;;14.50;99.90;;;;;;5088880;28;20500;-70
2021/10/14 11:28:49;;;;;;;26.87;24.13;;;14.70;99.90;;;;;;5080897;28;20461;-70
2021/10/14 11:31:23;;;;;;;24.83;22.27;;;15.00;99.90;;;;;;5087382;28;20517;-73
2021/10/14 11:33:49;;;;;;;25.93;23.60;;;15.20;99.90;;;;;;5087534;28;20470;-70
2021/10/14 11:36:21;;;;;;;25.40;22.93;;;15.10;99.90;;;;;;5084191;28;20465;-70
2021/10/14 11:38:58;;;;;;;24.77;22.53;;;15.40;99.90;;;;;;5090355;28;20471;-73
2021/10/14 11:41:27;;;;;;;26.13;23.57;;;15.40;99.90;;;;;;5092648;28;21509;-73
2021/10/14 11:43:59;;;;;;;24.07;21.77;;;15.80;99.90;;;;;;5087418;28;20464;-70
2021/10/14 11:46:28;;;;;;;25.10;22.90;;;16.00;99.90;;;;;;5086852;28;20458;-72
2021/10/14 11:49:00;;;;;;;24.07;22.10;;;16.30;99.90;;;;;;5090215;28;20468;-71
2021/10/14 11:51:28;;;;;;;23.80;21.73;;;16.20;99.90;;;;;;5090481;28;20483;-73
2021/10/14 11:53:57;;;;;;;23.53;21.43;;;16.30;99.90;;;;;;5093209;28;20461;-71
2021/10/14 11:56:25;;;;;;;23.50;21.60;;;16.40;99.90;;;;;;5088082;28;20490;-73
2021/10/14 11:58:53;;;;;;;25.93;23.33;;;16.50;99.90;;;;;;5083048;28;20791;-69
2021/10/14 12:01:24;;;;;;;24.53;22.73;;;16.40;99.90;;;;;;5092624;28;20469;-72
2021/10/14 12:03:52;;;;;;;24.20;22.27;;;16.60;99.90;;;;;;5095187;28;20971;-69
2021/10/14 12:06:21;;;;;;;23.80;21.50;;;16.90;99.90;;;;;;5062210;28;20485;-71
2021/10/14 12:08:49;;;;;;;31.23;22.53;;;16.90;99.90;;;;;;5087554;28;20457;-69
2021/10/14 12:11:19;;;;;;;24.60;22.60;;;16.80;99.90;;;;;;5092991;28;20819;-69
2021/10/14 12:13:56;;;;;;;23.80;22.00;;;16.50;99.90;;;;;;5095504;28;20465;-71
2021/10/14 12:16:24;;;;;;;24.70;22.40;;;16.60;99.90;;;;;;5090994;28;20470;-74
2021/10/14 12:18:52;;;;;;;22.70;20.87;;;17.10;99.90;;;;;;5096489;28;20874;-70
2021/10/14 12:21:33;;;;;;;24.40;22.23;;;17.70;99.90;;;;;;5089679;28;20470;-69
2021/10/14 12:24:10;;;;;;;22.57;20.80;;;18.40;99.90;;;;;;5095024;28;20495;-69
2021/10/14 12:26:39;;;;;;;22.87;20.90;;;18.70;99.90;;;;;;5092543;28;20488;-69
2021/10/14 12:29:25;;;;;;;22.67;20.87;;;19.00;99.90;;;;;;5091346;28;20463;-69
2021/10/14 12:32:11;;;;;;;24.17;21.67;;;18.40;99.90;;;;;;5090843;28;20469;-71
2021/10/14 12:34:46;;;;;;;24.53;22.70;;;18.20;99.90;;;;;;5090218;28;20465;-69
2021/10/14 12:37:16;;;;;;;24.40;21.97;;;17.70;99.90;;;;;;5093678;28;21003;-69